Aviation Digital Data Service (ADDS)

Output produced by TAFs form (0956 UTC 22 September 2017)
found at http://www.aviationweather.gov/adds/tafs/
 
METAR text: RJAF 220700Z 15009KT 110V180 9999 FEW030 BKN080 BKN/// 21/15 Q1017
Conditions at: RJAF (MATSUMOTO AIRPOR, JP) observed 0700 UTC 22 September 2017
Temperature: 21.0°C (70°F)
Dewpoint: 15.0°C (59°F) [RH = 69%]
Pressure (altimeter): 30.03 inches Hg (1017.0 mb)
Winds: from the SSE (150 degrees) at 10 MPH (9 knots; 4.7 m/s)
Visibility: 6 or more miles (10+ km)
Ceiling: 8000 feet AGL
Clouds: few clouds at 3000 feet AGL
broken clouds at 8000 feet AGL
Weather: no significant weather observed at this time